createdAt,value
2022-10-16T00:00:47.399Z,1003.22
2022-10-16T00:01:47.497Z,1003.21
2022-10-16T00:03:47.358Z,1003.22
2022-10-16T00:04:47.386Z,1003.16
2022-10-16T00:05:47.321Z,1003.14
2022-10-16T00:06:47.310Z,1003.17
2022-10-16T00:07:47.341Z,1003.21
2022-10-16T00:08:47.252Z,1003.19
2022-10-16T00:09:47.271Z,1003.20
2022-10-16T00:10:47.339Z,1003.22
2022-10-16T00:11:47.338Z,1003.20
2022-10-16T00:12:47.325Z,1003.22
2022-10-16T00:13:47.284Z,1003.26
2022-10-16T00:14:47.253Z,1003.28
2022-10-16T00:15:47.217Z,1003.25
2022-10-16T00:16:47.231Z,1003.25
2022-10-16T00:17:47.191Z,1003.23
2022-10-16T00:18:47.143Z,1003.24
2022-10-16T00:19:47.246Z,1003.21
2022-10-16T00:20:47.190Z,1003.22
2022-10-16T00:21:47.203Z,1003.28
2022-10-16T00:22:47.174Z,1003.23
2022-10-16T00:23:47.140Z,1003.24
2022-10-16T00:26:00.099Z,1003.23
2022-10-16T00:27:02.068Z,1003.18
2022-10-16T00:28:00.913Z,1003.18
2022-10-16T00:29:00.863Z,1003.19
2022-10-16T00:30:00.849Z,1003.21
2022-10-16T00:31:00.786Z,1003.22
2022-10-16T00:32:00.867Z,1003.21
2022-10-16T00:33:00.745Z,1003.21
2022-10-16T00:34:00.744Z,1003.21
2022-10-16T00:35:00.712Z,1003.18
2022-10-16T00:36:00.755Z,1003.23
2022-10-16T00:37:00.742Z,1003.24
2022-10-16T00:38:00.667Z,1003.23
2022-10-16T00:40:00.751Z,1003.26
2022-10-16T00:41:00.736Z,1003.26
2022-10-16T00:42:00.724Z,1003.26
2022-10-16T00:43:00.636Z,1003.23
2022-10-16T00:44:00.700Z,1003.23
2022-10-16T00:45:00.624Z,1003.20
2022-10-16T00:46:00.622Z,1003.21
2022-10-16T00:47:00.648Z,1003.19
2022-10-16T00:48:00.637Z,1003.20
2022-10-16T00:49:00.621Z,1003.29
2022-10-16T00:50:00.700Z,1003.25
2022-10-16T00:51:00.617Z,1003.30
2022-10-16T00:52:00.697Z,1003.32
2022-10-16T00:53:00.660Z,1003.29
2022-10-16T00:54:00.675Z,1003.26
2022-10-16T00:55:02.046Z,1003.25
2022-10-16T00:56:01.121Z,1003.30
2022-10-16T00:57:00.734Z,1003.25
2022-10-16T00:58:00.445Z,1003.31
2022-10-16T00:59:00.470Z,1003.24
2022-10-16T01:00:00.470Z,1003.25
2022-10-16T01:01:00.458Z,1003.19
2022-10-16T01:02:00.494Z,1003.15
2022-10-16T01:03:00.450Z,1003.17
2022-10-16T01:04:00.383Z,1003.14
2022-10-16T01:05:00.377Z,1003.14
2022-10-16T01:06:00.409Z,1003.16
2022-10-16T01:07:00.435Z,1003.20
2022-10-16T01:08:00.396Z,1003.20
2022-10-16T01:09:00.346Z,1003.25
2022-10-16T01:10:00.506Z,1003.25
2022-10-16T01:11:00.312Z,1003.22
2022-10-16T01:12:00.367Z,1003.20
2022-10-16T01:13:00.336Z,1003.21
2022-10-16T01:14:00.365Z,1003.16
2022-10-16T01:15:00.340Z,1003.15
2022-10-16T01:16:00.277Z,1003.18
2022-10-16T01:17:00.319Z,1003.18
2022-10-16T01:18:00.239Z,1003.17
2022-10-16T01:19:00.282Z,1003.23
2022-10-16T01:20:00.195Z,1003.25
2022-10-16T01:21:00.213Z,1003.23
2022-10-16T01:22:00.345Z,1003.24
2022-10-16T01:23:01.534Z,1003.32
2022-10-16T01:24:01.065Z,1003.25
2022-10-16T01:25:00.502Z,1003.28
2022-10-16T01:26:00.362Z,1003.28
2022-10-16T01:27:00.436Z,1003.27
2022-10-16T01:28:00.610Z,1003.31
2022-10-16T01:29:00.416Z,1003.26
2022-10-16T01:30:00.905Z,1003.27
2022-10-16T01:31:00.231Z,1003.30
2022-10-16T01:32:00.737Z,1003.26
2022-10-16T01:33:00.636Z,1003.28
2022-10-16T01:34:00.315Z,1003.24
2022-10-16T01:35:00.401Z,1003.26
2022-10-16T01:36:00.267Z,1003.27
2022-10-16T01:37:00.420Z,1003.26
2022-10-16T01:38:00.550Z,1003.20
2022-10-16T01:39:00.555Z,1003.24
2022-10-16T01:40:00.241Z,1003.23
2022-10-16T01:41:00.524Z,1003.23
2022-10-16T01:42:00.179Z,1003.30
2022-10-16T01:43:00.702Z,1003.27
2022-10-16T01:44:00.330Z,1003.27
2022-10-16T01:45:00.490Z,1003.26
2022-10-16T01:46:00.495Z,1003.24
2022-10-16T01:47:00.527Z,1003.22
2022-10-16T01:48:00.245Z,1003.25
2022-10-16T01:49:01.463Z,1003.18
2022-10-16T01:50:00.587Z,1003.25
2022-10-16T01:51:00.321Z,1003.29
2022-10-16T01:53:00.132Z,1003.24
2022-10-16T01:54:00.197Z,1003.17
2022-10-16T01:55:00.379Z,1003.14
2022-10-16T01:56:00.432Z,1003.12
2022-10-16T01:57:00.649Z,1003.15
2022-10-16T01:58:00.204Z,1003.19
2022-10-16T01:58:59.988Z,1003.18
2022-10-16T01:59:59.978Z,1003.19
2022-10-16T02:01:00.365Z,1003.20
2022-10-16T02:02:01.657Z,1003.23
2022-10-16T02:03:00.255Z,1003.25
2022-10-16T02:04:00.147Z,1003.24
2022-10-16T02:04:59.976Z,1003.25
2022-10-16T02:06:00.257Z,1003.26
2022-10-16T02:07:00.327Z,1003.24
2022-10-16T02:08:01.883Z,1003.28
2022-10-16T02:08:59.718Z,1003.31
2022-10-16T02:10:00.771Z,1003.30
2022-10-16T02:10:59.773Z,1003.27
2022-10-16T02:11:59.698Z,1003.31
2022-10-16T02:12:59.709Z,1003.33
2022-10-16T02:13:59.804Z,1003.33
2022-10-16T02:14:59.686Z,1003.31
2022-10-16T02:15:59.766Z,1003.32
2022-10-16T02:16:59.689Z,1003.31
2022-10-16T02:17:59.708Z,1003.28
2022-10-16T02:18:59.901Z,1003.29
2022-10-16T02:19:59.797Z,1003.32
2022-10-16T02:20:59.733Z,1003.28
2022-10-16T02:21:59.615Z,1003.31
2022-10-16T02:22:59.559Z,1003.29
2022-10-16T02:23:59.511Z,1003.24
2022-10-16T02:24:59.504Z,1003.25
2022-10-16T02:25:59.461Z,1003.24
2022-10-16T02:26:59.491Z,1003.25
2022-10-16T02:27:59.484Z,1003.28
2022-10-16T02:28:59.439Z,1003.29
2022-10-16T02:29:59.459Z,1003.28
2022-10-16T02:30:59.366Z,1003.35
2022-10-16T02:31:59.429Z,1003.37
2022-10-16T02:32:59.398Z,1003.38
2022-10-16T02:33:59.339Z,1003.40
2022-10-16T02:34:59.340Z,1003.34
2022-10-16T02:35:59.342Z,1003.30
2022-10-16T02:36:59.386Z,1003.30
2022-10-16T02:37:59.377Z,1003.33
2022-10-16T02:38:59.279Z,1003.30
2022-10-16T02:39:59.310Z,1003.28
2022-10-16T02:40:59.295Z,1003.24
2022-10-16T02:41:59.308Z,1003.29
2022-10-16T02:42:59.266Z,1003.24
2022-10-16T02:43:59.234Z,1003.29
2022-10-16T02:44:59.252Z,1003.39
2022-10-16T02:45:59.233Z,1003.36
2022-10-16T02:46:59.283Z,1003.38
2022-10-16T02:47:59.422Z,1003.38
2022-10-16T02:48:59.184Z,1003.37
2022-10-16T02:49:59.182Z,1003.41
2022-10-16T02:50:59.168Z,1003.42
2022-10-16T02:51:59.201Z,1003.43
2022-10-16T02:52:59.244Z,1003.46
2022-10-16T02:53:59.209Z,1003.49
2022-10-16T02:54:59.155Z,1003.46
2022-10-16T02:55:59.174Z,1003.52
2022-10-16T02:56:59.143Z,1003.42
2022-10-16T02:57:59.103Z,1003.41
2022-10-16T02:58:59.084Z,1003.43
2022-10-16T02:59:59.072Z,1003.43
2022-10-16T03:00:59.276Z,1003.40
2022-10-16T03:01:59.232Z,1003.47
2022-10-16T03:02:59.002Z,1003.45
2022-10-16T03:03:59.038Z,1003.44
2022-10-16T03:04:59.053Z,1003.46
2022-10-16T03:05:59.025Z,1003.45
2022-10-16T03:06:59.047Z,1003.45
2022-10-16T03:07:58.996Z,1003.40
2022-10-16T03:08:59.005Z,1003.38
2022-10-16T03:09:58.974Z,1003.40
2022-10-16T03:10:58.925Z,1003.38
2022-10-16T03:11:59.003Z,1003.34
2022-10-16T03:12:58.958Z,1003.34
2022-10-16T03:13:58.909Z,1003.33
2022-10-16T03:14:58.906Z,1003.38
2022-10-16T03:15:58.929Z,1003.35
2022-10-16T03:16:58.872Z,1003.34
2022-10-16T03:17:58.845Z,1003.38
2022-10-16T03:18:58.930Z,1003.39
2022-10-16T03:19:58.828Z,1003.40
2022-10-16T03:20:58.816Z,1003.38
2022-10-16T03:21:58.834Z,1003.40
2022-10-16T03:22:58.821Z,1003.42
2022-10-16T03:23:58.793Z,1003.41
2022-10-16T03:24:58.767Z,1003.43
2022-10-16T03:25:58.821Z,1003.46
2022-10-16T03:26:58.828Z,1003.50
2022-10-16T03:27:58.763Z,1003.54
2022-10-16T03:28:58.789Z,1003.55
2022-10-16T03:29:58.743Z,1003.57
2022-10-16T03:30:58.699Z,1003.54
2022-10-16T03:31:58.694Z,1003.55
2022-10-16T03:32:58.707Z,1003.48
2022-10-16T03:33:58.673Z,1003.47
2022-10-16T03:34:58.665Z,1003.48
2022-10-16T03:35:58.629Z,1003.49
2022-10-16T03:36:58.715Z,1003.44
2022-10-16T03:37:58.633Z,1003.44
2022-10-16T03:38:58.643Z,1003.44
2022-10-16T03:39:58.637Z,1003.47
2022-10-16T03:40:58.621Z,1003.45
2022-10-16T03:41:58.625Z,1003.46
2022-10-16T03:42:58.601Z,1003.45
2022-10-16T03:43:58.573Z,1003.44
2022-10-16T03:44:58.565Z,1003.41
2022-10-16T03:45:58.557Z,1003.41
2022-10-16T03:46:58.622Z,1003.43
2022-10-16T03:47:58.498Z,1003.39
2022-10-16T03:48:58.556Z,1003.42
2022-10-16T03:49:58.482Z,1003.38
2022-10-16T03:50:58.469Z,1003.39
2022-10-16T03:51:58.538Z,1003.39
2022-10-16T03:52:58.459Z,1003.38
2022-10-16T03:53:58.445Z,1003.41
2022-10-16T03:54:58.444Z,1003.41
2022-10-16T03:55:58.458Z,1003.44
2022-10-16T03:56:58.421Z,1003.38
2022-10-16T03:57:58.389Z,1003.41
2022-10-16T03:58:58.392Z,1003.44
2022-10-16T03:59:58.397Z,1003.45
2022-10-16T04:00:58.450Z,1003.43
2022-10-16T04:01:58.444Z,1003.47
2022-10-16T04:02:58.361Z,1003.42
2022-10-16T04:03:58.326Z,1003.43
2022-10-16T04:04:58.329Z,1003.46
2022-10-16T04:05:58.346Z,1003.45
2022-10-16T04:06:58.316Z,1003.46
2022-10-16T04:07:58.314Z,1003.51
2022-10-16T04:08:58.252Z,1003.50
2022-10-16T04:09:58.272Z,1003.50
2022-10-16T04:10:58.238Z,1003.54
2022-10-16T04:11:58.256Z,1003.55
2022-10-16T04:12:58.236Z,1003.59
2022-10-16T04:13:58.203Z,1003.61
2022-10-16T04:14:58.188Z,1003.61
2022-10-16T04:15:58.180Z,1003.65
2022-10-16T04:16:58.235Z,1003.70
2022-10-16T04:17:58.181Z,1003.72
2022-10-16T04:18:58.145Z,1003.74
2022-10-16T04:19:58.182Z,1003.79
2022-10-16T04:20:58.125Z,1003.78
2022-10-16T04:21:58.189Z,1003.73
2022-10-16T04:22:58.126Z,1003.80
2022-10-16T04:23:58.092Z,1003.80
2022-10-16T04:24:58.107Z,1003.77
2022-10-16T04:25:58.100Z,1003.72
2022-10-16T04:26:58.072Z,1003.63
2022-10-16T04:27:58.070Z,1003.65
2022-10-16T04:28:58.105Z,1003.69
2022-10-16T04:29:58.022Z,1003.73
2022-10-16T04:30:58.014Z,1003.76
2022-10-16T04:31:58.041Z,1003.76
2022-10-16T04:32:58.084Z,1003.72
2022-10-16T04:33:57.973Z,1003.71
2022-10-16T04:34:58.045Z,1003.73
2022-10-16T04:35:57.993Z,1003.72
2022-10-16T04:36:58.004Z,1003.77
2022-10-16T04:37:58.055Z,1003.82
2022-10-16T04:38:58.005Z,1003.82
2022-10-16T04:39:57.910Z,1003.80
2022-10-16T04:40:57.943Z,1003.84
2022-10-16T04:41:57.917Z,1003.80
2022-10-16T04:42:57.913Z,1003.84
2022-10-16T04:43:57.859Z,1003.81
2022-10-16T04:44:57.918Z,1003.83
2022-10-16T04:45:57.851Z,1003.90
2022-10-16T04:46:57.849Z,1003.90
2022-10-16T04:47:57.836Z,1003.87
2022-10-16T04:48:57.848Z,1003.83
2022-10-16T04:49:57.803Z,1003.85
2022-10-16T04:50:57.823Z,1003.80
2022-10-16T04:51:57.883Z,1003.84
2022-10-16T04:52:57.889Z,1003.89
2022-10-16T04:53:57.876Z,1003.84
2022-10-16T04:54:57.824Z,1003.85
2022-10-16T04:55:57.790Z,1003.85
2022-10-16T04:56:57.746Z,1003.80
2022-10-16T04:57:57.717Z,1003.77
2022-10-16T04:58:57.754Z,1003.76
2022-10-16T04:59:57.815Z,1003.80
2022-10-16T05:00:57.716Z,1003.83
2022-10-16T05:01:57.674Z,1003.86
2022-10-16T05:02:57.680Z,1003.87
2022-10-16T05:03:57.640Z,1003.90
2022-10-16T05:04:57.643Z,1003.88
2022-10-16T05:05:57.640Z,1003.96
2022-10-16T05:06:57.645Z,1003.92
2022-10-16T05:07:57.603Z,1003.94
2022-10-16T05:08:57.620Z,1003.94
2022-10-16T05:09:57.596Z,1003.97
2022-10-16T05:10:57.565Z,1004.02
2022-10-16T05:11:57.581Z,1004.03
2022-10-16T05:12:57.574Z,1004.01
2022-10-16T05:13:57.575Z,1003.95
2022-10-16T05:14:57.577Z,1003.95
2022-10-16T05:15:57.521Z,1003.96
2022-10-16T05:16:57.502Z,1004.08
2022-10-16T05:17:57.467Z,1004.02
2022-10-16T05:19:22.475Z,1004.11
2022-10-16T05:19:57.473Z,1004.11
2022-10-16T05:20:57.456Z,1004.09
2022-10-16T05:21:57.511Z,1004.06
2022-10-16T05:22:57.448Z,1004.00
2022-10-16T05:23:57.442Z,1003.97
2022-10-16T05:24:57.401Z,1004.10
2022-10-16T05:25:57.389Z,1004.11
2022-10-16T05:26:57.415Z,1004.15
2022-10-16T05:27:57.354Z,1004.12
2022-10-16T05:28:57.440Z,1004.16
2022-10-16T05:29:57.362Z,1004.13
2022-10-16T05:30:57.331Z,1004.20
2022-10-16T05:31:57.346Z,1004.17
2022-10-16T05:32:57.313Z,1004.21
2022-10-16T05:33:57.285Z,1004.20
2022-10-16T05:34:57.287Z,1004.24
2022-10-16T05:35:57.301Z,1004.20
2022-10-16T05:36:57.387Z,1004.22
2022-10-16T05:37:57.244Z,1004.22
2022-10-16T05:38:57.258Z,1004.23
2022-10-16T05:39:57.285Z,1004.30
2022-10-16T05:40:57.210Z,1004.27
2022-10-16T05:41:57.212Z,1004.30
2022-10-16T05:42:57.215Z,1004.31
2022-10-16T05:43:57.197Z,1004.28
2022-10-16T05:44:57.208Z,1004.26
2022-10-16T05:45:57.173Z,1004.38
2022-10-16T05:46:57.167Z,1004.42
2022-10-16T05:47:57.157Z,1004.44
2022-10-16T05:48:57.132Z,1004.47
2022-10-16T05:49:57.154Z,1004.49
2022-10-16T05:50:57.090Z,1004.48
2022-10-16T05:51:57.135Z,1004.41
2022-10-16T05:52:57.082Z,1004.47
2022-10-16T05:53:57.156Z,1004.47
2022-10-16T05:54:57.094Z,1004.51
2022-10-16T05:55:57.193Z,1004.55
2022-10-16T05:56:57.068Z,1004.57
2022-10-16T05:57:57.058Z,1004.62
2022-10-16T05:58:57.043Z,1004.65
2022-10-16T05:59:57.063Z,1004.65
2022-10-16T06:00:57.132Z,1004.64
2022-10-16T06:01:57.123Z,1004.61
2022-10-16T06:02:57.056Z,1004.66
2022-10-16T06:03:57.131Z,1004.71
2022-10-16T06:04:56.926Z,1004.70
2022-10-16T06:05:56.944Z,1004.70
2022-10-16T06:06:56.927Z,1004.68
2022-10-16T06:07:57.093Z,1004.68
2022-10-16T06:08:56.908Z,1004.68
2022-10-16T06:09:56.901Z,1004.69
2022-10-16T06:10:56.931Z,1004.71
2022-10-16T06:11:56.885Z,1004.74
2022-10-16T06:12:56.883Z,1004.73
2022-10-16T06:13:56.867Z,1004.74
2022-10-16T06:14:56.839Z,1004.71
2022-10-16T06:15:56.836Z,1004.76
2022-10-16T06:16:56.793Z,1004.74
2022-10-16T06:17:56.829Z,1004.76
2022-10-16T06:18:56.773Z,1004.75
2022-10-16T06:19:56.768Z,1004.81
2022-10-16T06:20:56.745Z,1004.76
2022-10-16T06:21:56.778Z,1004.82
2022-10-16T06:22:56.746Z,1004.84
2022-10-16T06:23:56.762Z,1004.87
2022-10-16T06:24:56.702Z,1004.92
2022-10-16T06:25:56.713Z,1004.91
2022-10-16T06:26:56.738Z,1004.90
2022-10-16T06:27:56.716Z,1004.91
2022-10-16T06:28:56.712Z,1005.00
2022-10-16T06:29:56.714Z,1005.00
2022-10-16T06:30:56.649Z,1005.01
2022-10-16T06:31:56.634Z,1004.98
2022-10-16T06:32:56.659Z,1005.06
2022-10-16T06:33:56.638Z,1005.04
2022-10-16T06:34:56.782Z,1005.04
2022-10-16T06:35:56.606Z,1005.04
2022-10-16T06:36:56.582Z,1005.05
2022-10-16T06:37:56.613Z,1005.04
2022-10-16T06:38:56.556Z,1005.07
2022-10-16T06:39:56.539Z,1005.07
2022-10-16T06:40:56.539Z,1005.06
2022-10-16T06:41:56.545Z,1005.09
2022-10-16T06:42:56.639Z,1005.04
2022-10-16T06:43:56.491Z,1005.09
2022-10-16T06:44:56.473Z,1005.13
2022-10-16T06:45:56.472Z,1005.15
2022-10-16T06:46:56.504Z,1005.20
2022-10-16T06:47:56.472Z,1005.19
2022-10-16T06:48:56.443Z,1005.19
2022-10-16T06:49:56.435Z,1005.20
2022-10-16T06:50:56.490Z,1005.31
2022-10-16T06:51:56.446Z,1005.27
2022-10-16T06:52:56.420Z,1005.32
2022-10-16T06:54:04.463Z,1005.29
2022-10-16T06:54:56.407Z,1005.34
2022-10-16T06:55:56.413Z,1005.36
2022-10-16T06:56:56.373Z,1005.37
2022-10-16T06:57:56.365Z,1005.41
2022-10-16T06:58:56.331Z,1005.40
2022-10-16T06:59:56.368Z,1005.45
2022-10-16T07:00:56.357Z,1005.48
2022-10-16T07:01:56.319Z,1005.49
2022-10-16T07:02:56.300Z,1005.47
2022-10-16T07:03:56.271Z,1005.53
2022-10-16T07:04:56.316Z,1005.55
2022-10-16T07:05:56.233Z,1005.56
2022-10-16T07:06:56.285Z,1005.57
2022-10-16T07:07:56.290Z,1005.58
2022-10-16T07:08:56.234Z,1005.56
2022-10-16T07:09:56.196Z,1005.58
2022-10-16T07:10:56.210Z,1005.57
2022-10-16T07:11:56.171Z,1005.59
2022-10-16T07:12:56.290Z,1005.61
2022-10-16T07:13:56.589Z,1005.63
2022-10-16T07:14:56.163Z,1005.66
2022-10-16T07:15:56.146Z,1005.71
2022-10-16T07:16:56.159Z,1005.72
2022-10-16T07:17:56.133Z,1005.74
2022-10-16T07:18:56.096Z,1005.78
2022-10-16T07:19:56.134Z,1005.80
2022-10-16T07:20:56.211Z,1005.83
2022-10-16T07:21:56.042Z,1005.89
2022-10-16T07:22:56.084Z,1005.88
2022-10-16T07:23:56.036Z,1005.95
2022-10-16T07:24:56.028Z,1006.03
2022-10-16T07:25:56.050Z,1006.03
2022-10-16T07:26:56.011Z,1006.09
2022-10-16T07:27:56.048Z,1006.15
2022-10-16T07:28:56.101Z,1006.15
2022-10-16T07:29:56.000Z,1006.13
2022-10-16T07:30:55.967Z,1006.15
2022-10-16T07:31:55.985Z,1006.16
2022-10-16T07:32:55.957Z,1006.14
2022-10-16T07:33:55.917Z,1006.14
2022-10-16T07:34:55.917Z,1006.13
2022-10-16T07:35:55.890Z,1006.16
2022-10-16T07:36:55.971Z,1006.17
2022-10-16T07:37:55.965Z,1006.22
2022-10-16T07:38:58.913Z,1006.25
2022-10-16T07:39:55.893Z,1006.30
2022-10-16T07:40:55.857Z,1006.36
2022-10-16T07:41:55.828Z,1006.38
2022-10-16T07:42:55.844Z,1006.40
2022-10-16T07:43:55.885Z,1006.36
2022-10-16T07:44:55.793Z,1006.46
2022-10-16T07:45:55.771Z,1006.44
2022-10-16T07:46:55.774Z,1006.47
2022-10-16T07:47:55.787Z,1006.48
2022-10-16T07:48:55.856Z,1006.51
2022-10-16T07:49:55.736Z,1006.52
2022-10-16T07:50:55.731Z,1006.51
2022-10-16T07:51:55.709Z,1006.51
2022-10-16T07:52:55.706Z,1006.54
2022-10-16T07:53:55.716Z,1006.56
2022-10-16T07:55:55.713Z,1006.59
2022-10-16T07:56:55.667Z,1006.63
2022-10-16T07:57:55.667Z,1006.59
2022-10-16T07:58:55.637Z,1006.62
2022-10-16T07:59:55.607Z,1006.65
2022-10-16T08:00:55.682Z,1006.66
2022-10-16T08:01:55.597Z,1006.65
2022-10-16T08:02:55.590Z,1006.63
2022-10-16T08:03:55.671Z,1006.64
2022-10-16T08:04:55.577Z,1006.66
2022-10-16T08:05:55.611Z,1006.67
2022-10-16T08:06:55.545Z,1006.68
2022-10-16T08:07:55.544Z,1006.70
2022-10-16T08:08:55.508Z,1006.68
2022-10-16T08:09:55.498Z,1006.73
2022-10-16T08:10:57.242Z,1006.67
2022-10-16T08:11:59.974Z,1006.72
2022-10-16T08:12:55.516Z,1006.70
2022-10-16T08:13:55.462Z,1006.72
2022-10-16T08:14:55.490Z,1006.73
2022-10-16T08:15:55.455Z,1006.70
2022-10-16T08:16:55.467Z,1006.76
2022-10-16T08:17:55.483Z,1006.72
2022-10-16T08:18:55.447Z,1006.78
2022-10-16T08:19:55.394Z,1006.78
2022-10-16T08:20:55.382Z,1006.76
2022-10-16T08:21:55.395Z,1006.76
2022-10-16T08:22:55.425Z,1006.81
2022-10-16T08:23:58.377Z,1006.85
2022-10-16T08:24:56.756Z,1006.79
2022-10-16T08:25:55.809Z,1006.83
2022-10-16T08:26:56.807Z,1006.85
2022-10-16T08:27:57.756Z,1006.83
2022-10-16T08:28:55.377Z,1006.91
2022-10-16T08:29:55.292Z,1006.94
2022-10-16T08:30:55.346Z,1006.88
2022-10-16T08:31:55.256Z,1006.88
2022-10-16T08:32:55.253Z,1006.83
2022-10-16T08:33:55.226Z,1006.86
2022-10-16T08:34:55.301Z,1006.83
2022-10-16T08:35:55.217Z,1006.86
2022-10-16T08:36:55.269Z,1006.87
2022-10-16T08:37:55.194Z,1006.86
2022-10-16T08:38:55.416Z,1006.91
2022-10-16T08:39:55.256Z,1006.88
2022-10-16T08:40:55.179Z,1006.88
2022-10-16T08:41:55.149Z,1006.90
2022-10-16T08:42:55.156Z,1006.94
2022-10-16T08:43:55.301Z,1006.98
2022-10-16T08:44:55.307Z,1006.98
2022-10-16T08:45:55.383Z,1006.97
2022-10-16T08:46:55.129Z,1007.02
2022-10-16T08:47:55.380Z,1006.99
2022-10-16T08:48:55.194Z,1007.02
2022-10-16T08:49:55.270Z,1007.06
2022-10-16T08:50:55.179Z,1007.09
2022-10-16T08:51:55.340Z,1007.06
2022-10-16T08:52:55.112Z,1007.12
2022-10-16T08:53:55.061Z,1007.08
2022-10-16T08:54:55.129Z,1007.09
2022-10-16T08:55:55.198Z,1007.08
2022-10-16T08:56:55.076Z,1007.11
2022-10-16T08:57:55.244Z,1007.12
2022-10-16T08:58:58.224Z,1007.17
2022-10-16T08:59:55.297Z,1007.15
2022-10-16T09:00:55.004Z,1007.19
2022-10-16T09:01:55.240Z,1007.22
2022-10-16T09:02:55.441Z,1007.29
2022-10-16T09:03:55.148Z,1007.30
2022-10-16T09:04:56.851Z,1007.31
2022-10-16T09:05:55.123Z,1007.32
2022-10-16T09:06:55.141Z,1007.32
2022-10-16T09:07:55.030Z,1007.34
2022-10-16T09:08:55.490Z,1007.39
2022-10-16T09:09:54.846Z,1007.35
2022-10-16T09:10:55.047Z,1007.43
2022-10-16T09:11:55.300Z,1007.42
2022-10-16T09:12:54.823Z,1007.46
2022-10-16T09:13:55.024Z,1007.47
2022-10-16T09:14:55.090Z,1007.50
2022-10-16T09:15:55.052Z,1007.49
2022-10-16T09:16:55.258Z,1007.51
2022-10-16T09:17:55.039Z,1007.52
2022-10-16T09:18:55.015Z,1007.56
2022-10-16T09:19:55.298Z,1007.46
2022-10-16T09:20:55.257Z,1007.41
2022-10-16T09:21:55.129Z,1007.47
2022-10-16T09:22:55.072Z,1007.48
2022-10-16T09:23:54.703Z,1007.46
2022-10-16T09:24:55.706Z,1007.43
2022-10-16T09:25:54.832Z,1007.43
2022-10-16T09:26:54.719Z,1007.50
2022-10-16T09:27:54.664Z,1007.50
2022-10-16T09:28:54.819Z,1007.44
2022-10-16T09:29:58.884Z,1007.50
2022-10-16T09:30:55.073Z,1007.53
2022-10-16T09:31:54.940Z,1007.51
2022-10-16T09:32:54.872Z,1007.54
2022-10-16T09:33:54.753Z,1007.48
2022-10-16T09:34:54.723Z,1007.53
2022-10-16T09:35:54.686Z,1007.56
2022-10-16T09:36:54.819Z,1007.59
2022-10-16T09:37:54.604Z,1007.51
2022-10-16T09:38:54.570Z,1007.57
2022-10-16T09:39:55.018Z,1007.50
2022-10-16T09:40:59.145Z,1007.62
2022-10-16T09:41:54.703Z,1007.60
2022-10-16T09:42:54.552Z,1007.60
2022-10-16T09:43:54.588Z,1007.61
2022-10-16T09:44:54.701Z,1007.64
2022-10-16T09:45:54.592Z,1007.62
2022-10-16T09:46:54.639Z,1007.65
2022-10-16T09:47:57.708Z,1007.67
2022-10-16T09:48:54.987Z,1007.67
2022-10-16T09:49:54.370Z,1007.69
2022-10-16T09:50:54.362Z,1007.71
2022-10-16T09:51:54.736Z,1007.78
2022-10-16T09:52:54.377Z,1007.80
2022-10-16T09:53:54.457Z,1007.84
2022-10-16T09:54:54.635Z,1007.86
2022-10-16T09:55:54.625Z,1007.88
2022-10-16T09:56:54.571Z,1007.93
2022-10-16T09:57:54.336Z,1007.85
2022-10-16T09:58:54.330Z,1007.95
2022-10-16T09:59:54.289Z,1007.90
2022-10-16T10:00:54.694Z,1007.91
2022-10-16T10:01:54.320Z,1007.89
2022-10-16T10:03:54.325Z,1007.93
2022-10-16T10:04:54.265Z,1008.00
2022-10-16T10:05:58.446Z,1007.98
2022-10-16T10:06:54.190Z,1007.89
2022-10-16T10:07:54.397Z,1007.90
2022-10-16T10:08:54.260Z,1007.91
2022-10-16T10:09:54.189Z,1007.91
2022-10-16T10:10:54.206Z,1007.89
2022-10-16T10:11:54.202Z,1007.90
2022-10-16T10:12:54.167Z,1007.89
2022-10-16T10:13:54.323Z,1007.86
2022-10-16T10:14:54.096Z,1007.87
2022-10-16T10:15:54.146Z,1007.88
2022-10-16T10:16:54.052Z,1007.93
2022-10-16T10:17:54.222Z,1007.90
2022-10-16T10:18:54.097Z,1007.85
2022-10-16T10:19:54.084Z,1007.91
2022-10-16T10:20:54.137Z,1007.90
2022-10-16T10:21:54.217Z,1007.91
2022-10-16T10:22:54.198Z,1007.95
2022-10-16T10:23:54.267Z,1008.00
2022-10-16T10:24:54.104Z,1007.97
2022-10-16T10:25:54.067Z,1008.04
2022-10-16T10:26:53.944Z,1008.00
2022-10-16T10:27:54.052Z,1008.03
2022-10-16T10:28:54.141Z,1008.03
2022-10-16T10:29:53.991Z,1008.05
2022-10-16T10:30:53.994Z,1007.98
2022-10-16T10:31:54.659Z,1008.06
2022-10-16T10:32:53.983Z,1008.00
2022-10-16T10:33:53.944Z,1008.02
2022-10-16T10:34:56.587Z,1008.04
2022-10-16T10:35:53.963Z,1008.06
2022-10-16T10:36:53.905Z,1008.03
2022-10-16T10:37:53.977Z,1008.04
2022-10-16T10:38:53.821Z,1008.01
2022-10-16T10:39:53.872Z,1008.05
2022-10-16T10:40:54.022Z,1008.05
2022-10-16T10:41:53.874Z,1008.09
2022-10-16T10:42:53.792Z,1008.01
2022-10-16T10:43:53.816Z,1008.03
2022-10-16T10:44:53.740Z,1008.04
2022-10-16T10:45:53.736Z,1008.03
2022-10-16T10:46:53.868Z,1008.10
2022-10-16T10:47:53.759Z,1008.02
2022-10-16T10:48:53.748Z,1008.06
2022-10-16T10:49:53.808Z,1008.05
2022-10-16T10:50:53.670Z,1008.04
2022-10-16T10:51:53.694Z,1008.06
2022-10-16T10:52:53.659Z,1008.08
2022-10-16T10:53:53.636Z,1008.02
2022-10-16T10:54:53.789Z,1008.07
2022-10-16T10:55:53.671Z,1008.06
2022-10-16T10:56:53.669Z,1008.07
2022-10-16T10:57:53.617Z,1008.12
2022-10-16T10:58:53.602Z,1008.09
2022-10-16T10:59:54.099Z,1008.08
2022-10-16T11:00:53.573Z,1008.07
2022-10-16T11:01:53.624Z,1008.04
2022-10-16T11:02:53.547Z,1008.10
2022-10-16T11:03:58.272Z,1008.07
2022-10-16T11:04:53.826Z,1008.10
2022-10-16T11:05:56.753Z,1008.13
2022-10-16T11:06:53.860Z,1008.06
2022-10-16T11:07:53.506Z,1008.12
2022-10-16T11:08:56.387Z,1008.10
2022-10-16T11:09:53.661Z,1008.11
2022-10-16T11:12:06.778Z,1008.12
2022-10-16T11:13:07.824Z,1008.11
2022-10-16T11:14:07.893Z,1008.12
2022-10-16T11:15:07.880Z,1008.11
2022-10-16T11:16:07.876Z,1008.09
2022-10-16T11:17:07.826Z,1008.12
2022-10-16T11:18:07.766Z,1008.15
2022-10-16T11:19:07.739Z,1008.20
2022-10-16T11:20:07.680Z,1008.13
2022-10-16T11:22:25.237Z,1008.19
2022-10-16T11:23:26.225Z,1008.14
2022-10-16T11:24:26.236Z,1008.16
2022-10-16T11:25:26.201Z,1008.13
2022-10-16T11:26:29.027Z,1008.17
2022-10-16T11:27:26.830Z,1008.19
2022-10-16T11:28:29.422Z,1008.16
2022-10-16T11:29:26.179Z,1008.14
2022-10-16T11:30:26.124Z,1008.18
2022-10-16T11:31:26.144Z,1008.24
2022-10-16T11:32:26.227Z,1008.11
2022-10-16T11:33:26.143Z,1008.15
2022-10-16T11:34:26.244Z,1008.14
2022-10-16T11:35:26.622Z,1008.15
2022-10-16T11:36:26.085Z,1008.21
2022-10-16T11:37:38.665Z,1008.21
2022-10-16T11:38:25.060Z,1008.18
2022-10-16T12:06:45.074Z,1008.44
2022-10-16T12:07:46.034Z,1008.44
2022-10-16T12:08:46.267Z,1008.43
2022-10-16T12:09:46.337Z,1008.45
2022-10-16T12:10:45.979Z,1008.43
2022-10-16T12:11:46.003Z,1008.40
2022-10-16T12:12:45.995Z,1008.44
2022-10-16T12:13:45.961Z,1008.46
2022-10-16T12:15:11.193Z,1008.44
2022-10-16T12:16:01.297Z,1008.46
2022-10-16T12:16:45.919Z,1008.46
2022-10-16T12:17:45.873Z,1008.48
2022-10-16T12:18:45.985Z,1008.46
2022-10-16T12:19:45.859Z,1008.45
2022-10-16T12:21:38.023Z,1008.45
2022-10-16T12:21:45.875Z,1008.46
2022-10-16T12:22:45.854Z,1008.46
2022-10-16T12:23:45.881Z,1008.49
2022-10-16T12:24:48.131Z,1008.52
2022-10-16T12:25:49.666Z,1008.49
2022-10-16T12:26:45.802Z,1008.59
2022-10-16T12:27:45.823Z,1008.57
2022-10-16T12:28:46.173Z,1008.59
2022-10-16T12:29:46.001Z,1008.59
2022-10-16T12:30:45.747Z,1008.60
2022-10-16T12:31:54.622Z,1008.55
2022-10-16T12:32:47.071Z,1008.60
2022-10-16T12:33:45.917Z,1008.59
2022-10-16T12:35:14.970Z,1008.55
2022-10-16T12:35:45.682Z,1008.64
2022-10-16T12:36:45.690Z,1008.67
2022-10-16T12:37:46.542Z,1008.67
2022-10-16T12:38:45.983Z,1008.68
2022-10-16T12:39:45.982Z,1008.67
2022-10-16T12:40:45.695Z,1008.69
2022-10-16T12:41:45.608Z,1008.64